This is the latest recevied weather packets stored in our database for station/object N3SBK. If no packets are shown the sender has not sent any weather packets the latest 10 day(s).
| Time | Temp. | Humidity | Pressure | Rain* | Wind** | Luminosity | Snow |
|---|---|---|---|---|---|---|---|
| 1788111448 | 28.33° C | 59% | 1013.5 hPa | 0 mm | - | 115 W/m² | - |
| 1788111143 | 27.78° C | 61% | 1013.4 hPa | 0 mm | - | 742 W/m² | - |
| 1788110840 | 28.33° C | 59% | 1013.6 hPa | 0 mm | - | 574 W/m² | - |
| 1788110537 | 28.33° C | 62% | 1013.6 hPa | 0 mm | - | 665 W/m² | - |
| 1788110232 | 28.33° C | 62% | 1013.4 hPa | 0 mm | - | 437 W/m² | - |
| 1788109927 | 27.78° C | 67% | 1013.6 hPa | 0 mm | - | 681 W/m² | - |
| 1788109621 | 27.78° C | 67% | 1013.8 hPa | 0 mm | - | 640 W/m² | - |
| 1788109320 | 27.22° C | 67% | 1013.9 hPa | 0 mm | - | 738 W/m² | - |
| 1788109015 | 27.78° C | 65% | 1013.7 hPa | 0 mm | - | 193 W/m² | - |
| 1788108711 | 28.33° C | 63% | 1013.7 hPa | 0 mm | - | 265 W/m² | - |
| 1788108407 | 28.33° C | 60% | 1013.8 hPa | 0 mm | - | 470 W/m² | - |
| 1788108103 | 27.78° C | 64% | 1013.8 hPa | 0 mm | - | 718 W/m² | - |
| 1788107799 | 27.22° C | 71% | 1013.7 hPa | 0 mm | - | 663 W/m² | - |
| 1788107499 | 27.22° C | 67% | 1013.5 hPa | 0 mm | - | 304 W/m² | - |
| 1788107194 | 27.22° C | 66% | 1013.6 hPa | 0 mm | - | 170 W/m² | - |
| 1788106890 | 26.67° C | 69% | 1013.7 hPa | 0 mm | - | 571 W/m² | - |
| 1788106590 | 26.11° C | 72% | 1013.7 hPa | 0 mm | - | 632 W/m² | - |
| 1788106285 | 26.11° C | 71% | 1013.8 hPa | 0 mm | - | 227 W/m² | - |
| 1788105981 | 26.11° C | 75% | 1013.7 hPa | 0 mm | - | 554 W/m² | - |
| 1788105676 | 26.11° C | 74% | 1013.7 hPa | 0 mm | - | 315 W/m² | - |
| 1788105372 | 25.56° C | 75% | 1013.7 hPa | 0 mm | - | 334 W/m² | - |
| 1788105068 | 25.56° C | 77% | 1013.7 hPa | 0 mm | - | 267 W/m² | - |
| 1788104762 | 25° C | 76% | 1013.8 hPa | 0 mm | - | 219 W/m² | - |
| 1788104459 | 25° C | 76% | 1013.8 hPa | 0 mm | - | 181 W/m² | - |
| 1788104155 | 25° C | 77% | 1014 hPa | 0 mm | - | 134 W/m² | - |
* Rain latest hour (hover to see other rain measurements)
** Current wind speed in m/s (hover to see current wind gust speed)